sensor_id;sensor_type;location;lat;lon;timestamp;temperature;humidity
13794;DHT22;31160;49.500;7.772;2022-09-09T00:03:53;14.30;99.90
13794;DHT22;31160;49.500;7.772;2022-09-09T00:06:42;14.30;99.90
13794;DHT22;31160;49.500;7.772;2022-09-09T00:09:18;14.30;99.90
13794;DHT22;31160;49.500;7.772;2022-09-09T00:11:55;14.20;99.90
13794;DHT22;31160;49.500;7.772;2022-09-09T00:14:47;14.30;99.90
13794;DHT22;31160;49.500;7.772;2022-09-09T00:17:42;14.30;99.90
13794;DHT22;31160;49.500;7.772;2022-09-09T00:20:30;14.30;99.90
13794;DHT22;31160;49.500;7.772;2022-09-09T00:23:12;14.30;99.90
13794;DHT22;31160;49.500;7.772;2022-09-09T00:28:27;14.20;99.90
13794;DHT22;31160;49.500;7.772;2022-09-09T00:31:13;14.10;99.90
13794;DHT22;31160;49.500;7.772;2022-09-09T00:33:43;14.00;99.90
13794;DHT22;31160;49.500;7.772;2022-09-09T00:36:13;14.00;99.90
13794;DHT22;31160;49.500;7.772;2022-09-09T00:41:21;13.90;99.90
13794;DHT22;31160;49.500;7.772;2022-09-09T00:52:52;14.10;99.90
13794;DHT22;31160;49.500;7.772;2022-09-09T00:58:16;14.00;99.90
13794;DHT22;31160;49.500;7.772;2022-09-09T01:00:52;13.90;99.90
13794;DHT22;31160;49.500;7.772;2022-09-09T01:03:38;13.80;99.90
13794;DHT22;31160;49.500;7.772;2022-09-09T01:06:31;13.80;99.90
13794;DHT22;31160;49.500;7.772;2022-09-09T01:09:22;13.80;99.90
13794;DHT22;31160;49.500;7.772;2022-09-09T01:12:30;13.80;99.90
13794;DHT22;31160;49.500;7.772;2022-09-09T01:15:08;13.80;99.90
13794;DHT22;31160;49.500;7.772;2022-09-09T01:17:48;13.80;99.90
13794;DHT22;31160;49.500;7.772;2022-09-09T01:20:27;13.90;99.90
13794;DHT22;31160;49.500;7.772;2022-09-09T01:23:10;13.90;99.90
13794;DHT22;31160;49.500;7.772;2022-09-09T01:28:29;13.90;99.90
13794;DHT22;31160;49.500;7.772;2022-09-09T01:31:04;14.00;99.90
13794;DHT22;31160;49.500;7.772;2022-09-09T01:37:26;13.90;99.90
13794;DHT22;31160;49.500;7.772;2022-09-09T01:39:52;13.80;99.90
13794;DHT22;31160;49.500;7.772;2022-09-09T01:42:19;13.70;99.90
13794;DHT22;31160;49.500;7.772;2022-09-09T01:44:46;13.70;99.90
13794;DHT22;31160;49.500;7.772;2022-09-09T01:47:15;13.80;99.90
13794;DHT22;31160;49.500;7.772;2022-09-09T01:50:05;13.80;99.90
13794;DHT22;31160;49.500;7.772;2022-09-09T01:52:34;13.90;99.90
13794;DHT22;31160;49.500;7.772;2022-09-09T01:55:04;13.90;99.90
13794;DHT22;31160;49.500;7.772;2022-09-09T01:58:07;14.00;99.90
13794;DHT22;31160;49.500;7.772;2022-09-09T02:00:42;14.00;99.90
13794;DHT22;31160;49.500;7.772;2022-09-09T02:03:26;14.00;99.90
13794;DHT22;31160;49.500;7.772;2022-09-09T02:08:44;14.00;99.90
13794;DHT22;31160;49.500;7.772;2022-09-09T02:11:17;13.90;99.90
13794;DHT22;31160;49.500;7.772;2022-09-09T02:13:54;13.90;99.90
13794;DHT22;31160;49.500;7.772;2022-09-09T02:16:28;13.90;99.90
13794;DHT22;31160;49.500;7.772;2022-09-09T02:19:08;13.90;99.90
13794;DHT22;31160;49.500;7.772;2022-09-09T02:21:52;13.90;99.90
13794;DHT22;31160;49.500;7.772;2022-09-09T02:24:21;13.90;99.90
13794;DHT22;31160;49.500;7.772;2022-09-09T02:26:58;14.00;99.90
13794;DHT22;31160;49.500;7.772;2022-09-09T02:29:34;13.90;99.90
13794;DHT22;31160;49.500;7.772;2022-09-09T02:32:06;13.80;99.90
13794;DHT22;31160;49.500;7.772;2022-09-09T02:34:48;13.80;99.90
13794;DHT22;31160;49.500;7.772;2022-09-09T02:37:19;13.70;99.90
13794;DHT22;31160;49.500;7.772;2022-09-09T02:39:51;13.70;99.90
13794;DHT22;31160;49.500;7.772;2022-09-09T02:42:20;13.70;99.90
13794;DHT22;31160;49.500;7.772;2022-09-09T02:44:48;13.60;99.90
13794;DHT22;31160;49.500;7.772;2022-09-09T02:50:19;13.60;99.90
13794;DHT22;31160;49.500;7.772;2022-09-09T02:53:16;13.70;99.90
13794;DHT22;31160;49.500;7.772;2022-09-09T02:58:23;13.70;99.90
13794;DHT22;31160;49.500;7.772;2022-09-09T03:01:01;13.70;99.90
13794;DHT22;31160;49.500;7.772;2022-09-09T03:03:30;13.60;99.90
13794;DHT22;31160;49.500;7.772;2022-09-09T03:06:00;13.70;99.90
13794;DHT22;31160;49.500;7.772;2022-09-09T03:08:27;13.80;99.90
13794;DHT22;31160;49.500;7.772;2022-09-09T03:10:58;13.80;99.90
13794;DHT22;31160;49.500;7.772;2022-09-09T03:13:30;13.80;99.90
13794;DHT22;31160;49.500;7.772;2022-09-09T03:15:57;13.80;99.90
13794;DHT22;31160;49.500;7.772;2022-09-09T03:18:24;13.80;99.90
13794;DHT22;31160;49.500;7.772;2022-09-09T03:20:53;13.70;99.90
13794;DHT22;31160;49.500;7.772;2022-09-09T03:23:21;13.60;99.90
13794;DHT22;31160;49.500;7.772;2022-09-09T03:25:49;13.70;99.90
13794;DHT22;31160;49.500;7.772;2022-09-09T03:28:20;13.70;99.90
13794;DHT22;31160;49.500;7.772;2022-09-09T03:30:47;13.60;99.90
13794;DHT22;31160;49.500;7.772;2022-09-09T03:33:15;13.60;99.90
13794;DHT22;31160;49.500;7.772;2022-09-09T03:35:46;13.70;99.90
13794;DHT22;31160;49.500;7.772;2022-09-09T03:38:17;13.60;99.90
13794;DHT22;31160;49.500;7.772;2022-09-09T03:40:51;13.60;99.90
13794;DHT22;31160;49.500;7.772;2022-09-09T03:43:21;13.50;99.90
13794;DHT22;31160;49.500;7.772;2022-09-09T03:45:50;13.40;99.90
13794;DHT22;31160;49.500;7.772;2022-09-09T03:48:17;13.40;99.90
13794;DHT22;31160;49.500;7.772;2022-09-09T03:50:46;13.40;99.90
13794;DHT22;31160;49.500;7.772;2022-09-09T03:53:15;13.40;99.90
13794;DHT22;31160;49.500;7.772;2022-09-09T03:55:46;13.40;99.90
13794;DHT22;31160;49.500;7.772;2022-09-09T03:58:14;13.50;99.90
13794;DHT22;31160;49.500;7.772;2022-09-09T04:00:42;13.50;99.90
13794;DHT22;31160;49.500;7.772;2022-09-09T04:03:11;13.50;99.90
13794;DHT22;31160;49.500;7.772;2022-09-09T04:05:41;13.50;99.90
13794;DHT22;31160;49.500;7.772;2022-09-09T04:08:09;13.50;99.90
13794;DHT22;31160;49.500;7.772;2022-09-09T04:10:36;13.60;99.90
13794;DHT22;31160;49.500;7.772;2022-09-09T04:13:04;13.60;99.90
13794;DHT22;31160;49.500;7.772;2022-09-09T04:15:32;13.60;99.90
13794;DHT22;31160;49.500;7.772;2022-09-09T04:17:59;13.70;99.90
13794;DHT22;31160;49.500;7.772;2022-09-09T04:20:25;13.70;99.90
13794;DHT22;31160;49.500;7.772;2022-09-09T04:22:52;13.80;99.90
13794;DHT22;31160;49.500;7.772;2022-09-09T04:25:19;13.90;99.90
13794;DHT22;31160;49.500;7.772;2022-09-09T04:27:46;14.00;99.90
13794;DHT22;31160;49.500;7.772;2022-09-09T04:30:14;14.00;99.90
13794;DHT22;31160;49.500;7.772;2022-09-09T04:32:41;14.00;99.90
13794;DHT22;31160;49.500;7.772;2022-09-09T04:35:08;14.10;99.90
13794;DHT22;31160;49.500;7.772;2022-09-09T04:37:35;14.10;99.90
13794;DHT22;31160;49.500;7.772;2022-09-09T04:40:02;14.20;99.90
13794;DHT22;31160;49.500;7.772;2022-09-09T04:42:34;14.20;99.90
13794;DHT22;31160;49.500;7.772;2022-09-09T04:45:01;14.30;99.90
13794;DHT22;31160;49.500;7.772;2022-09-09T04:47:32;14.30;99.90
13794;DHT22;31160;49.500;7.772;2022-09-09T04:49:58;14.40;99.90
13794;DHT22;31160;49.500;7.772;2022-09-09T04:52:26;14.40;99.90
13794;DHT22;31160;49.500;7.772;2022-09-09T04:54:52;14.70;99.90
13794;DHT22;31160;49.500;7.772;2022-09-09T04:57:20;14.70;99.90
13794;DHT22;31160;49.500;7.772;2022-09-09T04:59:47;14.70;99.90
13794;DHT22;31160;49.500;7.772;2022-09-09T05:02:14;14.80;99.90
13794;DHT22;31160;49.500;7.772;2022-09-09T05:04:42;14.90;99.90
13794;DHT22;31160;49.500;7.772;2022-09-09T05:07:08;14.90;99.90
13794;DHT22;31160;49.500;7.772;2022-09-09T05:09:35;15.00;99.90
13794;DHT22;31160;49.500;7.772;2022-09-09T05:12:03;15.10;99.90
13794;DHT22;31160;49.500;7.772;2022-09-09T05:14:35;15.20;99.90
13794;DHT22;31160;49.500;7.772;2022-09-09T05:17:04;15.30;99.90
13794;DHT22;31160;49.500;7.772;2022-09-09T05:19:32;15.40;99.90
13794;DHT22;31160;49.500;7.772;2022-09-09T05:21:59;15.30;99.90
13794;DHT22;31160;49.500;7.772;2022-09-09T05:24:34;15.40;99.90
13794;DHT22;31160;49.500;7.772;2022-09-09T05:27:04;15.40;99.90
13794;DHT22;31160;49.500;7.772;2022-09-09T05:29:32;15.60;99.90
13794;DHT22;31160;49.500;7.772;2022-09-09T05:32:04;15.60;99.90
13794;DHT22;31160;49.500;7.772;2022-09-09T05:34:32;15.70;99.90
13794;DHT22;31160;49.500;7.772;2022-09-09T05:37:00;15.90;99.90
13794;DHT22;31160;49.500;7.772;2022-09-09T05:39:26;16.00;99.90
13794;DHT22;31160;49.500;7.772;2022-09-09T05:41:53;16.20;99.90
13794;DHT22;31160;49.500;7.772;2022-09-09T05:44:21;16.20;99.90
13794;DHT22;31160;49.500;7.772;2022-09-09T05:46:49;16.20;99.90
13794;DHT22;31160;49.500;7.772;2022-09-09T05:49:16;16.10;99.90
13794;DHT22;31160;49.500;7.772;2022-09-09T05:51:44;16.20;99.90
13794;DHT22;31160;49.500;7.772;2022-09-09T05:54:13;16.20;99.90
13794;DHT22;31160;49.500;7.772;2022-09-09T05:56:45;16.50;99.90
13794;DHT22;31160;49.500;7.772;2022-09-09T05:59:17;16.80;99.90
13794;DHT22;31160;49.500;7.772;2022-09-09T06:01:44;17.10;99.90
13794;DHT22;31160;49.500;7.772;2022-09-09T06:04:19;17.10;99.90
13794;DHT22;31160;49.500;7.772;2022-09-09T06:06:50;16.90;99.90
13794;DHT22;31160;49.500;7.772;2022-09-09T06:09:20;16.80;99.90
13794;DHT22;31160;49.500;7.772;2022-09-09T06:11:47;16.50;99.90
13794;DHT22;31160;49.500;7.772;2022-09-09T06:14:14;16.30;99.90
13794;DHT22;31160;49.500;7.772;2022-09-09T06:16:44;16.20;99.90
13794;DHT22;31160;49.500;7.772;2022-09-09T06:19:22;16.40;99.90
13794;DHT22;31160;49.500;7.772;2022-09-09T06:21:51;16.40;99.90
13794;DHT22;31160;49.500;7.772;2022-09-09T06:24:17;16.30;99.90
13794;DHT22;31160;49.500;7.772;2022-09-09T06:26:45;16.40;99.90
13794;DHT22;31160;49.500;7.772;2022-09-09T06:29:18;16.40;99.90
13794;DHT22;31160;49.500;7.772;2022-09-09T06:31:45;16.30;99.90
13794;DHT22;31160;49.500;7.772;2022-09-09T06:34:15;16.40;99.90
13794;DHT22;31160;49.500;7.772;2022-09-09T06:36:46;16.40;99.90
13794;DHT22;31160;49.500;7.772;2022-09-09T06:39:13;16.60;99.90
13794;DHT22;31160;49.500;7.772;2022-09-09T06:41:42;16.80;99.90
13794;DHT22;31160;49.500;7.772;2022-09-09T06:44:41;17.00;99.90
13794;DHT22;31160;49.500;7.772;2022-09-09T06:47:12;17.40;99.90
13794;DHT22;31160;49.500;7.772;2022-09-09T06:49:41;17.70;99.90
13794;DHT22;31160;49.500;7.772;2022-09-09T06:52:14;18.00;99.90
13794;DHT22;31160;49.500;7.772;2022-09-09T06:54:40;18.20;99.90
13794;DHT22;31160;49.500;7.772;2022-09-09T06:57:07;18.30;99.90
13794;DHT22;31160;49.500;7.772;2022-09-09T06:59:55;18.30;99.90
13794;DHT22;31160;49.500;7.772;2022-09-09T07:02:23;18.60;99.90
13794;DHT22;31160;49.500;7.772;2022-09-09T07:04:50;18.70;99.90
13794;DHT22;31160;49.500;7.772;2022-09-09T07:07:18;18.80;99.90
13794;DHT22;31160;49.500;7.772;2022-09-09T07:09:45;18.90;99.90
13794;DHT22;31160;49.500;7.772;2022-09-09T07:12:13;18.90;99.90
13794;DHT22;31160;49.500;7.772;2022-09-09T07:14:47;19.10;99.90
13794;DHT22;31160;49.500;7.772;2022-09-09T07:17:14;19.20;99.90
13794;DHT22;31160;49.500;7.772;2022-09-09T07:19:41;18.80;99.90
13794;DHT22;31160;49.500;7.772;2022-09-09T07:22:08;18.80;99.90
13794;DHT22;31160;49.500;7.772;2022-09-09T07:24:37;18.90;99.90
13794;DHT22;31160;49.500;7.772;2022-09-09T07:27:04;19.10;99.90
13794;DHT22;31160;49.500;7.772;2022-09-09T07:29:32;18.80;99.90
13794;DHT22;31160;49.500;7.772;2022-09-09T07:31:59;18.90;99.90
13794;DHT22;31160;49.500;7.772;2022-09-09T07:34:32;19.10;99.90
13794;DHT22;31160;49.500;7.772;2022-09-09T07:36:59;19.20;99.90
13794;DHT22;31160;49.500;7.772;2022-09-09T07:39:28;19.40;99.90
13794;DHT22;31160;49.500;7.772;2022-09-09T07:41:55;19.40;99.90
13794;DHT22;31160;49.500;7.772;2022-09-09T07:44:24;19.30;99.90
13794;DHT22;31160;49.500;7.772;2022-09-09T07:47:04;19.40;99.90
13794;DHT22;31160;49.500;7.772;2022-09-09T07:49:36;19.40;99.90
13794;DHT22;31160;49.500;7.772;2022-09-09T07:52:04;19.40;99.90
13794;DHT22;31160;49.500;7.772;2022-09-09T07:54:39;19.20;99.90
13794;DHT22;31160;49.500;7.772;2022-09-09T07:57:06;19.00;99.90
13794;DHT22;31160;49.500;7.772;2022-09-09T07:59:35;19.00;99.90
13794;DHT22;31160;49.500;7.772;2022-09-09T08:02:02;19.00;99.90
13794;DHT22;31160;49.500;7.772;2022-09-09T08:04:32;19.00;99.90
13794;DHT22;31160;49.500;7.772;2022-09-09T08:07:00;19.00;99.90
13794;DHT22;31160;49.500;7.772;2022-09-09T08:09:31;19.20;99.90
13794;DHT22;31160;49.500;7.772;2022-09-09T08:12:19;19.20;99.90
13794;DHT22;31160;49.500;7.772;2022-09-09T08:14:46;19.30;99.90
13794;DHT22;31160;49.500;7.772;2022-09-09T08:17:12;19.20;99.90
13794;DHT22;31160;49.500;7.772;2022-09-09T08:19:39;19.20;99.90
13794;DHT22;31160;49.500;7.772;2022-09-09T08:22:12;18.90;99.90
13794;DHT22;31160;49.500;7.772;2022-09-09T08:24:39;18.50;99.90
13794;DHT22;31160;49.500;7.772;2022-09-09T08:27:07;18.50;99.90
13794;DHT22;31160;49.500;7.772;2022-09-09T08:29:34;18.70;99.90
13794;DHT22;31160;49.500;7.772;2022-09-09T08:32:01;18.70;99.90
13794;DHT22;31160;49.500;7.772;2022-09-09T08:34:28;18.90;99.90
13794;DHT22;31160;49.500;7.772;2022-09-09T08:36:59;18.70;99.90
13794;DHT22;31160;49.500;7.772;2022-09-09T08:39:39;18.80;99.90
13794;DHT22;31160;49.500;7.772;2022-09-09T08:42:15;18.90;99.90
13794;DHT22;31160;49.500;7.772;2022-09-09T08:50:39;19.40;99.90
13794;DHT22;31160;49.500;7.772;2022-09-09T08:53:27;19.30;99.90
13794;DHT22;31160;49.500;7.772;2022-09-09T08:56:18;19.40;99.90
13794;DHT22;31160;49.500;7.772;2022-09-09T08:58:50;19.60;99.90
13794;DHT22;31160;49.500;7.772;2022-09-09T09:01:54;19.40;99.90
13794;DHT22;31160;49.500;7.772;2022-09-09T09:07:21;19.30;99.90
13794;DHT22;31160;49.500;7.772;2022-09-09T09:13:30;19.20;99.90
13794;DHT22;31160;49.500;7.772;2022-09-09T09:16:07;19.20;99.90
13794;DHT22;31160;49.500;7.772;2022-09-09T09:18:38;19.50;99.90
13794;DHT22;31160;49.500;7.772;2022-09-09T09:21:13;19.60;99.90
13794;DHT22;31160;49.500;7.772;2022-09-09T09:23:56;19.50;99.90
13794;DHT22;31160;49.500;7.772;2022-09-09T09:26:33;19.40;99.90
13794;DHT22;31160;49.500;7.772;2022-09-09T09:29:10;19.30;99.90
13794;DHT22;31160;49.500;7.772;2022-09-09T09:31:43;19.50;99.90
13794;DHT22;31160;49.500;7.772;2022-09-09T09:34:12;19.80;99.90
13794;DHT22;31160;49.500;7.772;2022-09-09T09:36:45;20.00;99.90
13794;DHT22;31160;49.500;7.772;2022-09-09T09:39:28;20.00;99.90
13794;DHT22;31160;49.500;7.772;2022-09-09T09:42:19;20.00;99.90
13794;DHT22;31160;49.500;7.772;2022-09-09T09:44:51;20.30;99.90
13794;DHT22;31160;49.500;7.772;2022-09-09T09:47:21;20.60;99.90
13794;DHT22;31160;49.500;7.772;2022-09-09T09:50:19;20.70;99.90
13794;DHT22;31160;49.500;7.772;2022-09-09T09:53:34;20.70;99.90
13794;DHT22;31160;49.500;7.772;2022-09-09T09:56:08;20.60;99.90
13794;DHT22;31160;49.500;7.772;2022-09-09T10:01:22;20.40;99.90
13794;DHT22;31160;49.500;7.772;2022-09-09T10:03:57;20.60;99.90
13794;DHT22;31160;49.500;7.772;2022-09-09T10:06:33;20.70;99.90
13794;DHT22;31160;49.500;7.772;2022-09-09T10:09:01;20.80;99.90
13794;DHT22;31160;49.500;7.772;2022-09-09T10:11:46;20.60;99.90
13794;DHT22;31160;49.500;7.772;2022-09-09T10:17:13;21.10;99.90
13794;DHT22;31160;49.500;7.772;2022-09-09T10:19:58;21.20;99.90
13794;DHT22;31160;49.500;7.772;2022-09-09T10:22:33;21.40;99.90
13794;DHT22;31160;49.500;7.772;2022-09-09T10:28:10;21.90;99.70
13794;DHT22;31160;49.500;7.772;2022-09-09T10:33:49;21.80;99.00
13794;DHT22;31160;49.500;7.772;2022-09-09T10:36:23;21.60;99.30
13794;DHT22;31160;49.500;7.772;2022-09-09T10:39:05;21.50;98.90
13794;DHT22;31160;49.500;7.772;2022-09-09T10:47:12;20.80;99.90
13794;DHT22;31160;49.500;7.772;2022-09-09T10:52:32;20.70;99.90
13794;DHT22;31160;49.500;7.772;2022-09-09T10:55:19;20.70;99.90
13794;DHT22;31160;49.500;7.772;2022-09-09T10:57:51;20.70;99.90
13794;DHT22;31160;49.500;7.772;2022-09-09T11:00:23;21.00;99.90
13794;DHT22;31160;49.500;7.772;2022-09-09T11:03:01;21.00;99.90
13794;DHT22;31160;49.500;7.772;2022-09-09T11:05:43;20.90;99.90
13794;DHT22;31160;49.500;7.772;2022-09-09T11:08:23;21.10;99.90
13794;DHT22;31160;49.500;7.772;2022-09-09T11:13:42;21.80;99.90
13794;DHT22;31160;49.500;7.772;2022-09-09T11:16:45;21.50;99.50
13794;DHT22;31160;49.500;7.772;2022-09-09T11:19:41;21.30;98.60
13794;DHT22;31160;49.500;7.772;2022-09-09T11:24:49;21.00;98.50
13794;DHT22;31160;49.500;7.772;2022-09-09T11:27:21;21.10;98.90
13794;DHT22;31160;49.500;7.772;2022-09-09T11:33:18;21.30;98.10
13794;DHT22;31160;49.500;7.772;2022-09-09T11:35:47;21.50;97.80
13794;DHT22;31160;49.500;7.772;2022-09-09T11:38:46;21.70;98.10
13794;DHT22;31160;49.500;7.772;2022-09-09T11:41:14;21.90;97.30
13794;DHT22;31160;49.500;7.772;2022-09-09T11:43:51;21.60;97.70
13794;DHT22;31160;49.500;7.772;2022-09-09T11:46:34;21.60;97.90
13794;DHT22;31160;49.500;7.772;2022-09-09T11:49:05;20.90;98.50
13794;DHT22;31160;49.500;7.772;2022-09-09T11:51:34;21.00;99.00
13794;DHT22;31160;49.500;7.772;2022-09-09T11:54:28;20.80;99.30
13794;DHT22;31160;49.500;7.772;2022-09-09T11:56:57;20.00;99.90
13794;DHT22;31160;49.500;7.772;2022-09-09T11:59:30;18.70;99.90
13794;DHT22;31160;49.500;7.772;2022-09-09T12:02:00;18.20;99.90
13794;DHT22;31160;49.500;7.772;2022-09-09T12:04:32;18.00;99.90
13794;DHT22;31160;49.500;7.772;2022-09-09T12:09:58;17.50;99.90
13794;DHT22;31160;49.500;7.772;2022-09-09T12:12:31;17.30;99.90
13794;DHT22;31160;49.500;7.772;2022-09-09T12:17:42;16.70;99.90
13794;DHT22;31160;49.500;7.772;2022-09-09T12:20:22;16.70;99.90
13794;DHT22;31160;49.500;7.772;2022-09-09T12:23:30;16.50;99.90
13794;DHT22;31160;49.500;7.772;2022-09-09T12:26:17;16.50;99.90
13794;DHT22;31160;49.500;7.772;2022-09-09T12:39:48;17.50;99.90
13794;DHT22;31160;49.500;7.772;2022-09-09T12:42:18;17.70;99.90
13794;DHT22;31160;49.500;7.772;2022-09-09T12:47:26;17.90;99.90
13794;DHT22;31160;49.500;7.772;2022-09-09T12:49:57;18.00;99.90
13794;DHT22;31160;49.500;7.772;2022-09-09T12:52:30;17.90;99.90
13794;DHT22;31160;49.500;7.772;2022-09-09T12:55:00;17.80;99.90
13794;DHT22;31160;49.500;7.772;2022-09-09T12:57:33;17.70;99.90
13794;DHT22;31160;49.500;7.772;2022-09-09T13:00:16;17.70;99.90
13794;DHT22;31160;49.500;7.772;2022-09-09T13:02:57;17.60;99.90
13794;DHT22;31160;49.500;7.772;2022-09-09T13:05:36;17.60;99.90
13794;DHT22;31160;49.500;7.772;2022-09-09T13:08:05;17.60;99.90
13794;DHT22;31160;49.500;7.772;2022-09-09T13:10:42;17.60;99.90
13794;DHT22;31160;49.500;7.772;2022-09-09T13:13:24;17.80;99.90
13794;DHT22;31160;49.500;7.772;2022-09-09T13:15:58;17.90;99.90
13794;DHT22;31160;49.500;7.772;2022-09-09T13:18:36;18.00;99.90
13794;DHT22;31160;49.500;7.772;2022-09-09T13:21:04;18.10;99.90
13794;DHT22;31160;49.500;7.772;2022-09-09T13:23:34;18.20;99.90
13794;DHT22;31160;49.500;7.772;2022-09-09T13:26:25;18.30;99.90
13794;DHT22;31160;49.500;7.772;2022-09-09T13:28:53;18.60;99.90
13794;DHT22;31160;49.500;7.772;2022-09-09T13:31:27;18.90;99.90
13794;DHT22;31160;49.500;7.772;2022-09-09T13:33:54;19.30;99.90
13794;DHT22;31160;49.500;7.772;2022-09-09T13:36:30;19.00;99.90
13794;DHT22;31160;49.500;7.772;2022-09-09T13:39:02;19.20;99.90
13794;DHT22;31160;49.500;7.772;2022-09-09T13:44:04;19.30;99.90
13794;DHT22;31160;49.500;7.772;2022-09-09T13:46:38;19.30;99.90
13794;DHT22;31160;49.500;7.772;2022-09-09T13:51:44;19.30;99.90
13794;DHT22;31160;49.500;7.772;2022-09-09T13:54:15;19.40;99.90
13794;DHT22;31160;49.500;7.772;2022-09-09T13:56:42;19.40;99.90
13794;DHT22;31160;49.500;7.772;2022-09-09T13:59:13;19.50;99.90
13794;DHT22;31160;49.500;7.772;2022-09-09T14:01:40;19.20;99.90
13794;DHT22;31160;49.500;7.772;2022-09-09T14:04:08;18.90;99.90
13794;DHT22;31160;49.500;7.772;2022-09-09T14:06:35;18.70;99.90
13794;DHT22;31160;49.500;7.772;2022-09-09T14:09:11;18.50;99.90
13794;DHT22;31160;49.500;7.772;2022-09-09T14:11:38;18.30;99.90
13794;DHT22;31160;49.500;7.772;2022-09-09T14:14:07;18.20;99.90
13794;DHT22;31160;49.500;7.772;2022-09-09T14:16:34;18.10;99.90
13794;DHT22;31160;49.500;7.772;2022-09-09T14:19:01;18.10;99.90
13794;DHT22;31160;49.500;7.772;2022-09-09T14:21:28;18.00;99.90
13794;DHT22;31160;49.500;7.772;2022-09-09T14:23:55;18.00;99.90
13794;DHT22;31160;49.500;7.772;2022-09-09T14:26:24;18.00;99.90
13794;DHT22;31160;49.500;7.772;2022-09-09T14:28:51;18.10;99.90
13794;DHT22;31160;49.500;7.772;2022-09-09T14:31:23;18.20;99.90
13794;DHT22;31160;49.500;7.772;2022-09-09T14:33:50;18.20;99.90
13794;DHT22;31160;49.500;7.772;2022-09-09T14:36:18;18.40;99.90
13794;DHT22;31160;49.500;7.772;2022-09-09T14:38:44;18.50;99.90
13794;DHT22;31160;49.500;7.772;2022-09-09T14:41:13;18.90;99.90
13794;DHT22;31160;49.500;7.772;2022-09-09T14:43:40;19.30;99.90
13794;DHT22;31160;49.500;7.772;2022-09-09T14:46:11;19.50;99.90
13794;DHT22;31160;49.500;7.772;2022-09-09T14:48:38;19.80;99.90
13794;DHT22;31160;49.500;7.772;2022-09-09T14:51:13;20.10;99.90
13794;DHT22;31160;49.500;7.772;2022-09-09T14:53:42;20.10;99.90
13794;DHT22;31160;49.500;7.772;2022-09-09T14:56:15;20.20;99.90
13794;DHT22;31160;49.500;7.772;2022-09-09T14:58:43;20.10;99.90
13794;DHT22;31160;49.500;7.772;2022-09-09T15:01:18;20.00;99.90
13794;DHT22;31160;49.500;7.772;2022-09-09T15:03:53;20.00;99.90
13794;DHT22;31160;49.500;7.772;2022-09-09T15:06:21;20.20;99.90
13794;DHT22;31160;49.500;7.772;2022-09-09T15:08:50;20.00;99.90
13794;DHT22;31160;49.500;7.772;2022-09-09T15:11:18;20.10;99.90
13794;DHT22;31160;49.500;7.772;2022-09-09T15:13:44;20.00;99.90
13794;DHT22;31160;49.500;7.772;2022-09-09T15:16:14;19.90;99.90
13794;DHT22;31160;49.500;7.772;2022-09-09T15:18:42;19.80;99.90
13794;DHT22;31160;49.500;7.772;2022-09-09T15:21:17;19.80;99.90
13794;DHT22;31160;49.500;7.772;2022-09-09T15:23:45;19.90;99.90
13794;DHT22;31160;49.500;7.772;2022-09-09T15:26:13;20.00;99.90
13794;DHT22;31160;49.500;7.772;2022-09-09T15:28:44;20.00;99.90
13794;DHT22;31160;49.500;7.772;2022-09-09T15:33:54;19.50;99.90
13794;DHT22;31160;49.500;7.772;2022-09-09T15:36:29;19.20;99.90
13794;DHT22;31160;49.500;7.772;2022-09-09T15:38:56;19.10;99.90
13794;DHT22;31160;49.500;7.772;2022-09-09T15:41:23;19.10;99.90
13794;DHT22;31160;49.500;7.772;2022-09-09T15:43:52;18.90;99.90
13794;DHT22;31160;49.500;7.772;2022-09-09T15:46:26;18.70;99.90
13794;DHT22;31160;49.500;7.772;2022-09-09T15:48:56;18.90;99.90
13794;DHT22;31160;49.500;7.772;2022-09-09T15:51:24;18.90;99.90
13794;DHT22;31160;49.500;7.772;2022-09-09T15:54:09;19.10;99.90
13794;DHT22;31160;49.500;7.772;2022-09-09T15:56:36;18.90;99.90
13794;DHT22;31160;49.500;7.772;2022-09-09T15:59:03;19.00;99.90
13794;DHT22;31160;49.500;7.772;2022-09-09T16:01:30;19.10;99.90
13794;DHT22;31160;49.500;7.772;2022-09-09T16:03:59;19.10;99.90
13794;DHT22;31160;49.500;7.772;2022-09-09T16:06:28;19.10;99.90
13794;DHT22;31160;49.500;7.772;2022-09-09T16:08:56;19.00;99.90
13794;DHT22;31160;49.500;7.772;2022-09-09T16:11:29;18.90;99.90
13794;DHT22;31160;49.500;7.772;2022-09-09T16:13:56;18.90;99.90
13794;DHT22;31160;49.500;7.772;2022-09-09T16:16:26;18.80;99.90
13794;DHT22;31160;49.500;7.772;2022-09-09T16:18:56;18.70;99.90
13794;DHT22;31160;49.500;7.772;2022-09-09T16:21:32;18.50;99.90
13794;DHT22;31160;49.500;7.772;2022-09-09T16:24:02;18.50;99.90
13794;DHT22;31160;49.500;7.772;2022-09-09T16:26:31;18.50;99.90
13794;DHT22;31160;49.500;7.772;2022-09-09T16:28:58;18.40;99.90
13794;DHT22;31160;49.500;7.772;2022-09-09T16:31:27;18.30;99.90
13794;DHT22;31160;49.500;7.772;2022-09-09T16:33:55;18.50;99.90
13794;DHT22;31160;49.500;7.772;2022-09-09T16:36:29;18.50;99.90
13794;DHT22;31160;49.500;7.772;2022-09-09T16:39:05;18.30;99.90
13794;DHT22;31160;49.500;7.772;2022-09-09T16:41:33;17.50;99.90
13794;DHT22;31160;49.500;7.772;2022-09-09T16:44:03;17.00;99.90
13794;DHT22;31160;49.500;7.772;2022-09-09T16:46:31;16.60;99.90
13794;DHT22;31160;49.500;7.772;2022-09-09T16:49:00;16.60;99.90
13794;DHT22;31160;49.500;7.772;2022-09-09T16:51:30;16.40;99.90
13794;DHT22;31160;49.500;7.772;2022-09-09T16:53:59;16.30;99.90
13794;DHT22;31160;49.500;7.772;2022-09-09T16:56:28;16.20;99.90
13794;DHT22;31160;49.500;7.772;2022-09-09T16:58:57;16.10;99.90
13794;DHT22;31160;49.500;7.772;2022-09-09T17:01:30;16.10;99.90
13794;DHT22;31160;49.500;7.772;2022-09-09T17:04:03;16.10;99.90
13794;DHT22;31160;49.500;7.772;2022-09-09T17:06:33;16.10;99.90
13794;DHT22;31160;49.500;7.772;2022-09-09T17:09:03;16.00;99.90
13794;DHT22;31160;49.500;7.772;2022-09-09T17:11:30;15.90;99.90
13794;DHT22;31160;49.500;7.772;2022-09-09T17:13:58;15.80;99.90
13794;DHT22;31160;49.500;7.772;2022-09-09T17:16:27;15.70;99.90
13794;DHT22;31160;49.500;7.772;2022-09-09T17:18:55;15.80;99.90
13794;DHT22;31160;49.500;7.772;2022-09-09T17:21:24;15.80;99.90
13794;DHT22;31160;49.500;7.772;2022-09-09T17:23:53;15.90;99.90
13794;DHT22;31160;49.500;7.772;2022-09-09T17:26:23;15.80;99.90
13794;DHT22;31160;49.500;7.772;2022-09-09T17:28:50;15.60;99.90
13794;DHT22;31160;49.500;7.772;2022-09-09T17:31:21;15.20;99.90
13794;DHT22;31160;49.500;7.772;2022-09-09T17:33:50;15.10;99.90
13794;DHT22;31160;49.500;7.772;2022-09-09T17:36:22;15.20;99.90
13794;DHT22;31160;49.500;7.772;2022-09-09T17:38:49;15.00;99.90
13794;DHT22;31160;49.500;7.772;2022-09-09T17:41:20;14.90;99.90
13794;DHT22;31160;49.500;7.772;2022-09-09T17:43:48;14.80;99.90
13794;DHT22;31160;49.500;7.772;2022-09-09T17:46:18;14.80;99.90